Latest Coastal Weather Observations for Cape Byron

IDN60701

Issued at 7:55 pm EST Saturday 20 September 2014 (issued every 10 minutes, with the page automatically refreshed every 10 minutes)

About coastal observations | Map of coastal stations | Coastal observations for NSW | Marine services | Other Formats
Station Details ID: 058216 Name: CAPE BYRON AWS Lat: -28.64 Lon: 153.64 Height: 95.0 m
Data from the previous 72 hours. | See also: Recent months at Cape Byron
Date/Time
EST
Temp

°C
Wind Pressure Rain
since 9am
mm
Weather Cloud Vis
km
Sea
Height
m
Swell
Dir
 
Speed
knots
Gust
knots
hPa Trend Height
m
Period
s
Dir
20/07:30pm 17.9 ESE 17 20 1023.9 - 0.0 - - - - - - -
20/07:00pm 18.0 SE 16 21 1023.5 - 0.0 - - - - - - -
20/06:30pm 18.0 SE 15 20 1023.1 - 0.0 - - - - - - -
20/06:00pm 18.0 SE 16 20 1022.5 - 0.0 - - - - - - -
20/05:30pm 18.2 SE 16 21 1022.0 - 0.0 - - - - - - -
20/05:00pm 18.5 SE 15 19 1021.5 - 0.0 - - - - - - -
20/04:30pm 18.7 SE 14 19 1021.0 - 0.0 - - - - - - -
20/04:00pm 18.6 SE 17 21 1020.8 - 0.0 - - - - - - -
20/03:30pm 18.8 SE 14 20 1020.6 - 0.0 - - - - - - -
20/03:00pm 18.9 SE 15 19 1020.3 - 0.0 - - - - - - -
20/02:30pm 19.0 SE 15 20 1020.3 - 0.0 - - - - - - -
20/02:00pm 18.8 SSE 13 17 1020.4 - 0.0 - - - - - - -
20/01:30pm 18.6 SSE 14 18 1020.7 - 0.0 - - - - - - -
20/01:00pm 18.7 ESE 15 17 1021.0 - 0.0 - - - - - - -
20/12:30pm 18.7 E 11 16 1021.4 - 0.0 - - - - - - -
20/12:00pm 19.1 ESE 10 14 1021.6 - 0.0 - - - - - - -
20/11:30am 19.3 SE 9 12 1022.1 - 0.0 - - - - - - -
20/11:00am 19.8 SE 8 12 1022.4 - 0.0 - - - - - - -
20/10:30am 19.3 SSE 8 11 1022.5 - 0.0 - - - - - - -
20/10:00am 19.0 SSE 8 10 1022.8 - 0.0 - - - - - - -
20/09:30am 18.5 SSE 8 11 1022.9 - 0.0 - - - - - - -
20/09:00am 17.5 SSE 10 13 1022.9 - 2.0 - - - - - - -
20/08:30am 16.7 ESE 12 16 1022.8 - 2.0 - - - - - - -
20/08:00am 15.7 E 12 15 1022.5 - 2.0 - - - - - - -
20/07:30am 15.5 E 12 16 1022.2 - 2.0 - - - - - - -
20/07:00am 15.4 E 10 15 1021.9 - 1.8 - - - - - - -
20/06:30am 15.3 E 13 21 1021.5 - 1.6 - - - - - - -
20/06:00am 15.6 E 17 23 1020.6 - 1.2 Rain - - - - - -
20/05:49am 16.5 E 17 27 1020.6 - 0.0 - - - - - - -
20/05:30am 16.4 ESE 20 25 1019.8 - 0.0 - - - - - - -
20/05:22am 16.6 E 19 23 1019.7 - 0.0 - - - - - - -
20/05:00am 16.8 SE 21 26 1019.6 - 0.0 - - - - - - -
20/04:30am 16.9 SE 20 25 1019.3 - 0.0 - - - - - - -
20/04:00am 16.8 SE 16 26 1019.1 - 0.0 - - - - - - -
20/03:30am 16.6 S 16 21 1019.1 - 0.0 - - - - - - -
20/03:00am 16.5 S 17 20 1019.2 - 0.0 - - - - - - -
20/02:30am 15.1 SW 15 19 1019.2 - 0.0 - - - - - - -
20/02:00am 15.2 SW 13 18 1019.3 - 0.0 - - - - - - -
20/01:30am 15.9 SW 10 12 1019.2 - 0.0 - - - - - - -
20/01:00am 17.4 NNW 4 8 1018.9 - 0.0 - - - - - - -
20/12:30am 17.5 N 8 11 1019.2 - 0.0 - - - - - - -
20/12:00am 17.4 N 9 12 1019.2 - 0.0 - - - - - - -
 
Date/Time
EST
Temp

°C
Wind Pressure Rain
since 9am
mm
Weather Cloud Vis
km
Sea
Height
m
Swell
Dir
 
Speed
knots
Gust
knots
hPa Trend Height
m
Period
s
Dir
19/11:30pm 17.6 N 11 17 1019.0 - 0.0 - - - - - - -
19/11:00pm 18.1 NNE 10 14 1019.2 - 0.0 - - - - - - -
19/10:30pm 17.8 N 9 13 1019.3 - 0.0 - - - - - - -
19/10:00pm 19.0 NNE 12 18 1019.6 - 0.0 - - - - - - -
19/09:30pm 19.1 NNE 11 16 1019.6 - 0.0 - - - - - - -
19/09:00pm 19.1 NE 11 17 1019.5 - 0.0 - - - - - - -
19/08:30pm 19.1 NE 13 17 1019.8 - 0.0 - - - - - - -
19/08:00pm 19.1 NE 11 16 1019.6 - 0.0 - - - - - - -
19/07:30pm 19.2 NE 11 16 1019.3 - 0.0 - - - - - - -
19/07:00pm 19.2 NE 16 18 1019.0 - 0.0 - - - - - - -
19/06:30pm 19.0 NE 15 18 1018.5 - 0.0 - - - - - - -
19/06:00pm 19.1 NE 14 17 1018.1 - 0.0 - - - - - - -
19/05:30pm 19.4 NNE 15 19 1017.7 - 0.0 - - - - - - -
19/05:00pm 20.1 NE 12 16 1017.6 - 0.0 - - - - - - -
19/04:30pm 20.6 NE 13 16 1017.5 - 0.0 - - - - - - -
19/04:00pm 21.3 NE 12 14 1017.2 - 0.0 - - - - - - -
19/03:30pm 22.6 ENE 11 14 1017.2 - 0.0 - - - - - - -
19/03:00pm 22.5 E 9 14 1017.2 - 0.0 - - - - - - -
19/02:30pm 22.2 ENE 8 11 1017.7 - 0.0 - - - - - - -
19/02:00pm 21.8 E 10 14 1018.0 - 0.0 - - - - - - -
19/01:30pm 22.7 E 10 12 1018.5 - 0.0 - - - - - - -
19/01:00pm 21.6 E 9 11 1018.9 - 0.0 - - - - - - -
19/12:30pm 21.5 E 10 12 1019.4 - 0.0 - - - - - - -
19/12:00pm 20.6 E 9 13 1019.8 - 0.0 - - - - - - -
19/11:30am 20.6 E 9 11 1020.2 - 0.0 - - - - - - -
19/11:00am 20.3 ENE 8 9 1020.8 - 0.0 - - - - - - -
19/10:30am 20.7 ENE 7 9 1021.1 - 0.0 - - - - - - -
19/10:00am 19.8 SE 5 7 1021.5 - 0.0 - - - - - - -
19/09:30am 18.9 S 5 6 1021.9 - 0.0 - - - - - - -
19/09:00am 18.1 SSW 5 7 1022.0 - 0.0 - - - - - - -
19/08:30am 17.1 WSW 8 9 1021.9 - 0.0 - - - - - - -
19/08:00am 15.9 WSW 8 11 1021.7 - 0.0 - - - - - - -
19/07:30am 15.4 WSW 7 10 1021.6 - 0.0 - - - - - - -
19/07:00am 14.8 WSW 7 10 1021.2 - 0.0 - - - - - - -
19/06:30am 15.1 WSW 6 8 1020.9 - 0.0 - - - - - - -
19/06:00am 14.4 WSW 11 13 1020.6 - 0.0 - - - - - - -
19/05:30am 13.8 WSW 12 15 1020.3 - 0.0 - - - - - - -
19/05:00am 14.0 WSW 12 14 1019.9 - 0.0 - - - - - - -
19/04:30am 14.5 WSW 11 14 1019.7 - 0.0 - - - - - - -
19/04:00am 14.7 WSW 8 11 1019.4 - 0.0 - - - - - - -
19/03:30am 14.9 WSW 9 10 1019.2 - 0.0 - - - - - - -
19/03:00am 15.0 WSW 7 9 1019.2 - 0.0 - - - - - - -
19/02:30am 15.7 SW 6 7 1019.4 - 0.0 - - - - - - -
19/02:00am 16.3 SSW 5 6 1019.5 - 0.0 - - - - - - -
19/01:30am 16.6 S 3 5 1019.9 - 0.0 - - - - - - -
19/01:00am 16.4 E 3 4 1020.0 - 0.0 - - - - - - -
19/12:30am 16.6 E 3 5 1020.2 - 0.0 - - - - - - -
19/12:00am 17.1 SE 4 5 1020.4 - 0.0 - - - - - - -
 
Date/Time
EST
Temp

°C
Wind Pressure Rain
since 9am
mm
Weather Cloud Vis
km
Sea
Height
m
Swell
Dir
 
Speed
knots
Gust
knots
hPa Trend Height
m
Period
s
Dir
18/11:30pm 17.2 ESE 3 4 1020.8 - 0.0 - - - - - - -
18/11:00pm 17.3 ESE 4 6 1020.7 - 0.0 - - - - - - -
18/10:30pm 17.1 ESE 5 7 1020.6 - 0.0 - - - - - - -
18/10:00pm 17.2 E 3 4 1020.4 - 0.0 - - - - - - -
18/09:30pm 17.0 NNE 4 5 1020.2 - 0.0 - - - - - - -
18/09:00pm 16.7 NW 4 5 1020.0 - 0.0 - - - - - - -
18/08:30pm 17.5 ENE 7 9 1019.6 - 0.0 - - - - - - -
18/08:00pm 17.3 ENE 9 11 1019.1 - 0.0 - - - - - - -
18/07:30pm 17.1 ENE 7 9 1018.6 - 0.0 - - - - - - -
18/07:00pm 17.3 ENE 7 10 1018.2 - 0.0 - - - - - - -
18/06:30pm 17.6 E 6 10 1017.7 - 0.0 - - - - - - -
18/06:00pm 18.0 ENE 7 11 1017.3 - 0.0 - - - - - - -
18/05:30pm 18.8 E 9 13 1016.9 - 0.0 - - - - - - -
18/05:00pm 19.3 E 16 19 1016.4 - 0.0 - - - - - - -
18/04:30pm 19.7 E 18 20 1016.1 - 0.0 - - - - - - -
18/04:00pm 20.1 E 18 21 1015.9 - 0.0 - - - - - - -
18/03:30pm 20.0 E 16 19 1015.9 - 0.0 - - - - - - -
18/03:00pm 20.2 E 14 17 1016.1 - 0.0 - - - - - - -
18/02:30pm 19.8 SE 14 19 1016.2 - 0.0 - - - - - - -
18/02:00pm 20.2 SE 12 16 1016.2 - 0.0 - - - - - - -
18/01:30pm 20.4 SE 13 16 1016.3 - 0.0 - - - - - - -
18/01:00pm 20.2 SE 12 18 1016.7 - 0.0 - - - - - - -
18/12:30pm 20.3 SSE 11 15 1017.1 - 0.0 - - - - - - -
18/12:00pm 21.8 WSW 10 15 1017.6 - 0.0 - - - - - - -
18/11:30am 21.2 WSW 11 19 1017.9 - 0.0 - - - - - - -
18/11:00am 20.6 SW 14 21 1018.2 - 0.0 - - - - - - -
18/10:49am 20.2 SW 15 25 1018.4 - 0.0 - - - - - - -
18/10:30am 20.0 SW 17 20 1018.6 - 0.0 - - - - - - -
18/10:00am 19.9 SSW 15 22 1018.8 - 0.0 - - - - - - -
18/09:30am 19.1 S 18 22 1018.9 - 0.0 - - - - - - -
18/09:00am 18.8 SW 16 22 1019.1 - 0.0 - - - - - - -
18/08:30am 17.9 WSW 13 16 1019.2 - 0.0 - - - - - - -
18/08:00am 16.7 WSW 12 18 1019.0 - 0.0 - - - - - - -
18/07:30am 15.9 WSW 12 16 1018.8 - 0.0 - - - - - - -
18/07:00am 15.5 WSW 14 19 1018.4 - 0.0 - - - - - - -
18/06:30am 15.2 W 15 18 1018.1 - 0.0 - - - - - - -
18/06:00am 15.1 W 15 18 1017.6 - 0.0 - - - - - - -
18/05:30am 15.8 W 16 21 1017.1 - 0.0 - - - - - - -
18/05:00am 16.0 WSW 17 22 1016.6 - 0.0 - - - - - - -
18/04:30am 15.9 WSW 17 21 1016.1 - 0.0 - - - - - - -
18/04:00am 16.6 WSW 19 25 1015.8 - 0.0 - - - - - - -
18/03:30am 16.6 WSW 20 26 1015.3 - 0.0 - - - - - - -
18/03:00am 17.1 WSW 20 23 1015.3 - 0.0 - - - - - - -
18/02:30am 17.1 W 15 18 1015.4 - 0.0 - - - - - - -
18/02:00am 17.3 WSW 16 20 1015.3 - 0.0 - - - - - - -
18/01:30am 18.1 WSW 14 19 1015.4 - 0.0 - - - - - - -
18/01:00am 18.5 WSW 15 19 1015.4 - 0.0 - - - - - - -
18/12:30am 18.7 WSW 16 19 1015.4 - 0.0 - - - - - - -
18/12:00am 18.4 WSW 16 20 1015.3 - 0.0 - - - - - - -
 
Date/Time
EST
Temp

°C
Wind Pressure Rain
since 9am
mm
Weather Cloud Vis
km
Sea
Height
m
Swell
Dir
 
Speed
knots
Gust
knots
hPa Trend Height
m
Period
s
Dir
17/11:30pm 18.3 WSW 18 24 1015.2 - 0.0 - - - - - - -
17/11:00pm 18.4 WSW 15 18 1015.2 - 0.0 - - - - - - -
17/10:30pm 19.5 W 15 18 1015.2 - 0.0 - - - - - - -
17/10:00pm 19.9 W 16 19 1015.0 - 0.0 - - - - - - -
17/09:30pm 20.2 W 13 18 1014.8 - 0.0 - - - - - - -
17/09:00pm 17.9 WNW 7 9 1014.5 - 0.0 - - - - - - -
17/08:30pm 17.7 WNW 7 9 1014.1 - 0.0 - - - - - - -
17/08:00pm 18.9 NNW 7 9 1013.9 - 0.0 - - - - - - -

Other Formats:

Comma delimited format used in spreadsheet applications
http://www.bom.gov.au/fwo/IDN60701/IDN60701.94599.axf

JavaScript Object Notation format (JSON) in row-major order
http://www.bom.gov.au/fwo/IDN60701/IDN60701.94599.json